createdAt,value
2018-06-25T00:00:22.506Z,16.80
2018-06-25T00:00:56.704Z,16.80
2018-06-25T00:02:03.495Z,16.80
2018-06-25T00:02:37.085Z,16.80
2018-06-25T00:03:10.724Z,16.80
2018-06-25T00:03:44.510Z,16.80
2018-06-25T00:04:18.067Z,16.80
2018-06-25T00:04:51.691Z,16.80
2018-06-25T00:05:25.201Z,16.80
2018-06-25T00:05:58.831Z,16.80
2018-06-25T00:06:32.439Z,16.80
2018-06-25T00:07:06.905Z,16.80
2018-06-25T00:07:40.436Z,16.80
2018-06-25T00:08:14.056Z,16.80
2018-06-25T00:08:47.614Z,16.80
2018-06-25T00:09:21.283Z,16.80
2018-06-25T00:09:54.799Z,16.80
2018-06-25T00:10:28.437Z,16.70
2018-06-25T00:11:02.318Z,16.80
2018-06-25T00:11:36.654Z,16.70
2018-06-25T00:12:10.255Z,16.70
2018-06-25T00:12:43.857Z,16.70
2018-06-25T00:13:17.933Z,16.70
2018-06-25T00:13:51.461Z,16.80
2018-06-25T00:14:25.080Z,16.70
2018-06-25T00:14:58.660Z,16.70
2018-06-25T00:15:32.299Z,16.80
2018-06-25T00:16:05.983Z,16.70
2018-06-25T00:16:39.612Z,16.70
2018-06-25T00:17:13.761Z,16.70
2018-06-25T00:17:48.173Z,16.70
2018-06-25T00:18:21.792Z,16.80
2018-06-25T00:18:55.407Z,16.70
2018-06-25T00:19:28.996Z,16.70
2018-06-25T00:20:02.627Z,16.70
2018-06-25T00:20:36.752Z,16.70
2018-06-25T00:21:10.316Z,16.70
2018-06-25T00:21:44.923Z,16.70
2018-06-25T00:22:20.022Z,16.70
2018-06-25T00:22:53.708Z,16.70
2018-06-25T00:23:27.265Z,16.70
2018-06-25T00:24:00.925Z,16.70
2018-06-25T00:24:34.541Z,16.70
2018-06-25T00:25:08.156Z,16.70
2018-06-25T00:25:41.836Z,16.70
2018-06-25T00:26:15.441Z,16.70
2018-06-25T00:26:49.732Z,16.80
2018-06-25T00:27:24.324Z,16.70
2018-06-25T00:27:58.056Z,16.70
2018-06-25T00:28:32.600Z,16.70
2018-06-25T00:29:06.243Z,16.70
2018-06-25T00:29:39.804Z,16.80
2018-06-25T00:30:13.432Z,16.70
2018-06-25T00:30:47.626Z,16.70
2018-06-25T00:31:21.399Z,16.70
2018-06-25T00:31:55.473Z,16.80
2018-06-25T00:32:29.660Z,16.80
2018-06-25T00:33:03.269Z,16.70
2018-06-25T00:33:36.797Z,16.70
2018-06-25T00:34:10.315Z,16.70
2018-06-25T00:34:43.900Z,16.70
2018-06-25T00:35:18.063Z,16.70
2018-06-25T00:35:51.678Z,16.70
2018-06-25T00:36:25.480Z,16.70
2018-06-25T00:36:59.004Z,16.70
2018-06-25T00:37:32.535Z,16.70
2018-06-25T00:38:06.368Z,16.70
2018-06-25T00:38:39.879Z,16.70
2018-06-25T00:39:13.452Z,16.70
2018-06-25T00:39:47.247Z,16.70
2018-06-25T00:40:20.850Z,16.70
2018-06-25T00:40:54.415Z,16.70
2018-06-25T00:41:27.975Z,16.70
2018-06-25T00:42:01.545Z,16.70
2018-06-25T00:42:35.144Z,16.70
2018-06-25T00:43:08.733Z,16.60
2018-06-25T00:43:42.328Z,16.70
2018-06-25T00:44:15.943Z,16.70
2018-06-25T00:44:50.134Z,16.70
2018-06-25T00:45:23.647Z,16.70
2018-06-25T00:46:30.439Z,16.70
2018-06-25T00:47:04.594Z,16.70
2018-06-25T00:47:38.920Z,16.70
2018-06-25T00:48:12.446Z,16.70
2018-06-25T00:48:46.084Z,16.70
2018-06-25T00:49:19.880Z,16.70
2018-06-25T00:50:26.803Z,16.70
2018-06-25T00:51:00.392Z,16.70
2018-06-25T00:51:34.094Z,16.70
2018-06-25T00:52:07.696Z,16.70
2018-06-25T00:52:42.564Z,16.70
2018-06-25T00:53:16.104Z,16.70
2018-06-25T00:53:50.136Z,16.70
2018-06-25T00:54:23.641Z,16.70
2018-06-25T00:54:57.908Z,16.70
2018-06-25T00:55:31.513Z,16.60
2018-06-25T00:56:05.146Z,16.60
2018-06-25T00:56:39.354Z,16.60
2018-06-25T00:57:12.967Z,16.60
2018-06-25T00:57:46.527Z,16.70
2018-06-25T00:58:20.735Z,16.60
2018-06-25T00:59:05.489Z,16.60
2018-06-25T00:59:52.937Z,16.60
2018-06-25T01:00:26.536Z,16.60
2018-06-25T01:01:00.176Z,16.50
2018-06-25T01:01:33.724Z,16.50
2018-06-25T01:02:07.418Z,16.50
2018-06-25T01:02:40.953Z,16.50
2018-06-25T01:03:14.559Z,16.50
2018-06-25T01:03:48.184Z,16.50
2018-06-25T01:04:21.796Z,16.50
2018-06-25T01:04:55.380Z,16.50
2018-06-25T01:05:28.928Z,16.50
2018-06-25T01:06:03.225Z,16.60
2018-06-25T01:06:36.767Z,16.60
2018-06-25T01:07:10.585Z,16.60
2018-06-25T01:07:44.133Z,16.60
2018-06-25T01:08:17.722Z,16.60
2018-06-25T01:08:52.175Z,16.60
2018-06-25T01:09:58.942Z,16.60
2018-06-25T01:10:32.462Z,16.60
2018-06-25T01:11:06.207Z,16.60
2018-06-25T01:11:39.999Z,16.60
2018-06-25T01:12:14.229Z,16.60
2018-06-25T01:12:47.835Z,16.60
2018-06-25T01:13:22.036Z,16.60
2018-06-25T01:13:55.612Z,16.60
2018-06-25T01:14:29.236Z,16.60
2018-06-25T01:15:03.541Z,16.60
2018-06-25T01:15:38.044Z,16.60
2018-06-25T01:16:12.874Z,16.60
2018-06-25T01:16:46.447Z,16.60
2018-06-25T01:17:20.063Z,16.60
2018-06-25T01:17:54.203Z,16.60
2018-06-25T01:18:28.182Z,16.60
2018-06-25T01:19:02.341Z,16.50
2018-06-25T01:19:37.968Z,16.50
2018-06-25T01:20:11.728Z,16.50
2018-06-25T01:20:45.307Z,16.50
2018-06-25T01:21:18.876Z,16.50
2018-06-25T01:21:52.494Z,16.50
2018-06-25T01:22:26.077Z,16.50
2018-06-25T01:23:00.108Z,16.50
2018-06-25T01:23:35.172Z,16.50
2018-06-25T01:24:08.733Z,16.50
2018-06-25T01:24:42.968Z,16.50
2018-06-25T01:26:23.636Z,16.50
2018-06-25T01:26:57.453Z,16.50
2018-06-25T01:27:31.036Z,16.50
2018-06-25T01:28:04.627Z,16.50
2018-06-25T01:28:38.830Z,16.50
2018-06-25T01:29:12.387Z,16.50
2018-06-25T01:30:19.163Z,16.50
2018-06-25T01:30:52.767Z,16.40
2018-06-25T01:31:26.355Z,16.40
2018-06-25T01:31:59.903Z,16.40
2018-06-25T01:32:34.149Z,16.40
2018-06-25T01:33:08.639Z,16.40
2018-06-25T01:33:42.201Z,16.50
2018-06-25T01:34:15.814Z,16.40
2018-06-25T01:34:50.025Z,16.40
2018-06-25T01:35:24.496Z,16.40
2018-06-25T01:35:58.155Z,16.50
2018-06-25T01:36:31.811Z,16.40
2018-06-25T01:37:05.477Z,16.50
2018-06-25T01:37:39.752Z,16.50
2018-06-25T01:38:13.327Z,16.50
2018-06-25T01:38:46.980Z,16.50
2018-06-25T01:39:21.060Z,16.50
2018-06-25T01:39:54.656Z,16.50
2018-06-25T01:40:28.197Z,16.50
2018-06-25T01:41:02.659Z,16.50
2018-06-25T01:41:36.357Z,16.50
2018-06-25T01:42:09.959Z,16.50
2018-06-25T01:42:44.046Z,16.50
2018-06-25T01:43:17.651Z,16.50
2018-06-25T01:43:51.896Z,16.50
2018-06-25T01:44:25.492Z,16.50
2018-06-25T01:44:59.147Z,16.50
2018-06-25T01:45:32.751Z,16.50
2018-06-25T01:46:06.339Z,16.50
2018-06-25T01:46:40.962Z,16.50
2018-06-25T01:47:14.564Z,16.50
2018-06-25T01:47:48.104Z,16.50
2018-06-25T01:48:21.671Z,16.50
2018-06-25T01:48:55.711Z,16.50
2018-06-25T01:49:29.254Z,16.50
2018-06-25T01:50:02.809Z,16.50
2018-06-25T01:50:36.376Z,16.60
2018-06-25T01:51:10.590Z,16.60
2018-06-25T01:51:44.802Z,16.60
2018-06-25T01:52:18.411Z,16.60
2018-06-25T01:52:52.590Z,16.50
2018-06-25T01:53:26.131Z,16.60
2018-06-25T01:53:59.662Z,16.50
2018-06-25T01:54:33.927Z,16.50
2018-06-25T01:55:08.176Z,16.50
2018-06-25T01:55:41.768Z,16.50
2018-06-25T01:56:15.377Z,16.50
2018-06-25T01:56:48.954Z,16.50
2018-06-25T01:57:23.188Z,16.60
2018-06-25T01:57:56.754Z,16.60
2018-06-25T01:58:30.367Z,16.50
2018-06-25T01:59:03.965Z,16.60
2018-06-25T01:59:37.539Z,16.50
2018-06-25T02:00:11.151Z,16.50
2018-06-25T02:00:45.323Z,16.60
2018-06-25T02:01:18.864Z,16.60
2018-06-25T02:02:26.361Z,16.60
2018-06-25T02:02:59.889Z,16.60
2018-06-25T02:03:33.500Z,16.60
2018-06-25T02:04:07.069Z,16.60
2018-06-25T02:04:40.628Z,16.60
2018-06-25T02:05:14.751Z,16.60
2018-06-25T02:05:48.644Z,16.60
2018-06-25T02:06:22.212Z,16.60
2018-06-25T02:06:56.415Z,16.60
2018-06-25T02:07:30.564Z,16.60
2018-06-25T02:08:37.536Z,16.50
2018-06-25T02:09:12.416Z,16.50
2018-06-25T02:09:46.001Z,16.50
2018-06-25T02:10:19.592Z,16.50
2018-06-25T02:10:53.295Z,16.50
2018-06-25T02:11:26.915Z,16.50
2018-06-25T02:12:35.006Z,16.50
2018-06-25T02:13:08.768Z,16.60
2018-06-25T02:13:42.330Z,16.50
2018-06-25T02:14:15.913Z,16.50
2018-06-25T02:14:50.131Z,16.50
2018-06-25T02:15:23.775Z,16.60
2018-06-25T02:15:57.511Z,16.60
2018-06-25T02:16:32.007Z,16.60
2018-06-25T02:17:05.767Z,16.60
2018-06-25T02:17:39.333Z,16.60
2018-06-25T02:18:13.385Z,16.60
2018-06-25T02:18:47.767Z,16.50
2018-06-25T02:19:21.340Z,16.60
2018-06-25T02:19:55.292Z,16.50
2018-06-25T02:20:29.611Z,16.50
2018-06-25T02:21:03.808Z,16.50
2018-06-25T02:21:37.417Z,16.50
2018-06-25T02:22:11.606Z,16.50
2018-06-25T02:22:45.203Z,16.50
2018-06-25T02:23:18.857Z,16.50
2018-06-25T02:23:52.422Z,16.50
2018-06-25T02:24:26.181Z,16.50
2018-06-25T02:25:00.351Z,16.50
2018-06-25T02:25:34.495Z,16.50
2018-06-25T02:26:08.029Z,16.50
2018-06-25T02:26:42.230Z,16.50
2018-06-25T02:27:15.814Z,16.50
2018-06-25T02:27:50.113Z,16.50
2018-06-25T02:28:23.675Z,16.40
2018-06-25T02:28:57.212Z,16.50
2018-06-25T02:29:30.855Z,16.50
2018-06-25T02:30:38.271Z,16.40
2018-06-25T02:31:11.823Z,16.50
2018-06-25T02:31:46.051Z,16.50
2018-06-25T02:32:20.346Z,16.50
2018-06-25T02:32:53.984Z,16.40
2018-06-25T02:33:28.256Z,16.40
2018-06-25T02:34:02.768Z,16.40
2018-06-25T02:34:36.380Z,16.50
2018-06-25T02:35:09.992Z,16.50
2018-06-25T02:36:16.843Z,16.40
2018-06-25T02:36:50.421Z,16.40
2018-06-25T02:37:23.984Z,16.40
2018-06-25T02:37:58.299Z,16.40
2018-06-25T02:38:31.960Z,16.40
2018-06-25T02:39:08.656Z,16.40
2018-06-25T02:39:42.919Z,16.40
2018-06-25T02:40:16.483Z,16.40
2018-06-25T02:40:50.098Z,16.40
2018-06-25T02:41:24.557Z,16.40
2018-06-25T02:41:58.165Z,16.40
2018-06-25T02:42:31.699Z,16.50
2018-06-25T02:43:06.065Z,16.40
2018-06-25T02:43:39.616Z,16.40
2018-06-25T02:44:13.178Z,16.50
2018-06-25T02:45:54.012Z,16.40
2018-06-25T02:46:27.579Z,16.40
2018-06-25T02:47:01.220Z,16.40
2018-06-25T02:47:34.823Z,16.30
2018-06-25T02:48:09.047Z,16.40
2018-06-25T02:48:42.589Z,16.40
2018-06-25T02:49:16.230Z,16.40
2018-06-25T02:49:49.778Z,16.40
2018-06-25T02:50:24.142Z,16.40
2018-06-25T02:50:58.377Z,16.40
2018-06-25T02:51:31.940Z,16.40
2018-06-25T02:52:10.948Z,16.40
2018-06-25T02:52:44.484Z,16.40
2018-06-25T02:53:18.839Z,16.40
2018-06-25T02:53:52.675Z,16.40
2018-06-25T02:54:26.338Z,16.40
2018-06-25T02:54:59.963Z,16.40
2018-06-25T02:55:34.913Z,16.40
2018-06-25T02:56:08.447Z,16.40
2018-06-25T02:56:42.010Z,16.40
2018-06-25T02:57:16.221Z,16.40
2018-06-25T02:57:49.809Z,16.40
2018-06-25T02:58:23.397Z,16.40
2018-06-25T02:58:57.367Z,16.40
2018-06-25T02:59:30.965Z,16.40
2018-06-25T03:00:04.622Z,16.40
2018-06-25T03:00:38.189Z,16.40
2018-06-25T03:01:12.955Z,16.40
2018-06-25T03:01:46.476Z,16.40
2018-06-25T03:02:20.080Z,16.40
2018-06-25T03:02:53.679Z,16.40
2018-06-25T03:03:28.871Z,16.40
2018-06-25T03:04:03.337Z,16.40
2018-06-25T03:04:36.925Z,16.40
2018-06-25T03:05:10.479Z,16.40
2018-06-25T03:05:44.216Z,16.40
2018-06-25T03:06:17.923Z,16.40
2018-06-25T03:06:51.818Z,16.40
2018-06-25T03:07:25.397Z,16.40
2018-06-25T03:07:59.596Z,16.40
2018-06-25T03:08:33.208Z,16.40
2018-06-25T03:09:08.633Z,16.40
2018-06-25T03:09:42.738Z,16.30
2018-06-25T03:10:16.335Z,16.30
2018-06-25T03:10:49.890Z,16.30
2018-06-25T03:11:23.427Z,16.30
2018-06-25T03:11:56.988Z,16.20
2018-06-25T03:12:31.505Z,16.20
2018-06-25T03:13:05.064Z,16.30
2018-06-25T03:13:39.866Z,16.30
2018-06-25T03:14:46.660Z,16.30
2018-06-25T03:15:20.250Z,16.20
2018-06-25T03:15:53.814Z,16.30
2018-06-25T03:16:28.203Z,16.20
2018-06-25T03:17:35.950Z,16.20
2018-06-25T03:18:09.512Z,16.20
2018-06-25T03:18:43.297Z,16.30
2018-06-25T03:19:16.948Z,16.20
2018-06-25T03:19:50.936Z,16.20
2018-06-25T03:20:24.473Z,16.20
2018-06-25T03:20:59.518Z,16.20
2018-06-25T03:21:33.089Z,16.20
2018-06-25T03:22:07.154Z,16.20
2018-06-25T03:22:40.941Z,16.20
2018-06-25T03:23:15.172Z,16.20
2018-06-25T03:23:48.797Z,16.20
2018-06-25T03:24:23.071Z,16.30
2018-06-25T03:24:56.685Z,16.20
2018-06-25T03:25:30.341Z,16.30
2018-06-25T03:26:03.936Z,16.20
2018-06-25T03:26:37.528Z,16.30
2018-06-25T03:27:11.163Z,16.20
2018-06-25T03:27:44.685Z,16.30
2018-06-25T03:28:18.244Z,16.30
2018-06-25T03:28:51.825Z,16.30
2018-06-25T03:29:25.432Z,16.30
2018-06-25T03:30:33.437Z,16.30
2018-06-25T03:31:07.005Z,16.30
2018-06-25T03:31:40.610Z,16.30
2018-06-25T03:32:47.417Z,16.30
2018-06-25T03:33:21.771Z,16.30
2018-06-25T03:33:55.408Z,16.30
2018-06-25T03:34:29.008Z,16.40
2018-06-25T03:35:02.584Z,16.30
2018-06-25T03:35:36.257Z,16.40
2018-06-25T03:36:09.816Z,16.30
2018-06-25T03:36:44.136Z,16.30
2018-06-25T03:37:17.737Z,16.30
2018-06-25T03:37:51.353Z,16.30
2018-06-25T03:38:26.104Z,16.30
2018-06-25T03:38:59.704Z,16.30
2018-06-25T03:39:33.813Z,16.30
2018-06-25T03:40:07.382Z,16.30
2018-06-25T03:40:40.979Z,16.30
2018-06-25T03:41:47.743Z,16.30
2018-06-25T03:42:21.324Z,16.30
2018-06-25T03:42:54.891Z,16.20
2018-06-25T03:43:30.605Z,16.20
2018-06-25T03:44:04.300Z,16.30
2018-06-25T03:44:37.877Z,16.20
2018-06-25T03:45:11.476Z,16.20
2018-06-25T03:45:45.795Z,16.20
2018-06-25T03:46:19.370Z,16.30
2018-06-25T03:46:52.970Z,16.30
2018-06-25T03:47:26.526Z,16.30
2018-06-25T03:48:00.145Z,16.30
2018-06-25T03:48:33.780Z,16.30
2018-06-25T03:49:07.484Z,16.30
2018-06-25T03:49:41.211Z,16.30
2018-06-25T03:50:14.727Z,16.30
2018-06-25T03:50:48.331Z,16.30
2018-06-25T03:51:55.174Z,16.30
2018-06-25T03:52:28.785Z,16.30
2018-06-25T03:53:02.860Z,16.30
2018-06-25T03:53:36.444Z,16.30
2018-06-25T03:54:10.718Z,16.30
2018-06-25T03:54:44.335Z,16.20
2018-06-25T03:55:17.885Z,16.20
2018-06-25T03:55:51.431Z,16.30
2018-06-25T03:56:25.688Z,16.30
2018-06-25T03:56:59.276Z,16.20
2018-06-25T03:57:32.828Z,16.30
2018-06-25T03:58:07.065Z,16.30
2018-06-25T03:58:40.656Z,16.30
2018-06-25T03:59:14.240Z,16.30
2018-06-25T03:59:47.868Z,16.30
2018-06-25T04:00:21.452Z,16.30
2018-06-25T04:00:55.018Z,16.30
2018-06-25T04:01:29.588Z,16.30
2018-06-25T04:02:03.091Z,16.30
2018-06-25T04:02:36.723Z,16.20
2018-06-25T04:04:17.732Z,16.30
2018-06-25T04:04:51.302Z,16.20
2018-06-25T04:05:24.823Z,16.20
2018-06-25T04:05:58.389Z,16.20
2018-06-25T04:06:31.892Z,16.30
2018-06-25T04:07:05.483Z,16.30
2018-06-25T04:07:40.378Z,16.30
2018-06-25T04:08:13.912Z,16.30
2018-06-25T04:08:47.521Z,16.30
2018-06-25T04:09:54.409Z,16.30
2018-06-25T04:10:27.954Z,16.30
2018-06-25T04:11:01.517Z,16.30
2018-06-25T04:11:35.047Z,16.30
2018-06-25T04:12:08.695Z,16.30
2018-06-25T04:12:42.292Z,16.30
2018-06-25T04:13:16.414Z,16.30
2018-06-25T04:13:49.963Z,16.30
2018-06-25T04:14:23.493Z,16.30
2018-06-25T04:14:57.075Z,16.20
2018-06-25T04:15:30.672Z,16.20
2018-06-25T04:16:04.269Z,16.20
2018-06-25T04:16:37.830Z,16.20
2018-06-25T04:17:11.373Z,16.20
2018-06-25T04:17:44.955Z,16.20
2018-06-25T04:18:18.552Z,16.20
2018-06-25T04:18:58.091Z,16.20
2018-06-25T04:19:31.641Z,16.20
2018-06-25T04:20:05.608Z,16.20
2018-06-25T04:20:39.266Z,16.20
2018-06-25T04:21:12.848Z,16.20
2018-06-25T04:21:47.160Z,16.20
2018-06-25T04:22:20.712Z,16.20
2018-06-25T04:22:54.226Z,16.30
2018-06-25T04:23:27.903Z,16.30
2018-06-25T04:24:02.259Z,16.30
2018-06-25T04:24:35.860Z,16.30
2018-06-25T04:25:10.051Z,16.30
2018-06-25T04:25:43.611Z,16.30
2018-06-25T04:26:17.748Z,16.40
2018-06-25T04:26:51.327Z,16.40
2018-06-25T04:27:24.873Z,16.40
2018-06-25T04:27:58.516Z,16.40
2018-06-25T04:28:33.312Z,16.40
2018-06-25T04:29:08.520Z,16.40
2018-06-25T04:29:42.241Z,16.40
2018-06-25T04:30:15.907Z,16.40
2018-06-25T04:30:49.568Z,16.40
2018-06-25T04:31:23.124Z,16.50
2018-06-25T04:31:56.644Z,16.40
2018-06-25T04:32:30.160Z,16.50
2018-06-25T04:33:03.778Z,16.50
2018-06-25T04:33:37.318Z,16.50
2018-06-25T04:34:10.867Z,16.50
2018-06-25T04:34:44.441Z,16.50
2018-06-25T04:35:18.131Z,16.50
2018-06-25T04:35:51.756Z,16.50
2018-06-25T04:36:25.831Z,16.50
2018-06-25T04:36:59.877Z,16.50
2018-06-25T04:37:34.938Z,16.50
2018-06-25T04:38:41.740Z,16.50
2018-06-25T04:39:15.369Z,16.40
2018-06-25T04:39:49.607Z,16.40
2018-06-25T04:40:23.819Z,16.40
2018-06-25T04:40:57.420Z,16.40
2018-06-25T04:41:32.152Z,16.40
2018-06-25T04:42:06.145Z,16.40
2018-06-25T04:42:39.642Z,16.40
2018-06-25T04:43:13.202Z,16.40
2018-06-25T04:43:46.775Z,16.40
2018-06-25T04:44:20.377Z,16.40
2018-06-25T04:44:53.981Z,16.40
2018-06-25T04:45:27.603Z,16.40
2018-06-25T04:46:01.902Z,16.40
2018-06-25T04:46:35.536Z,16.30
2018-06-25T04:47:09.092Z,16.30
2018-06-25T04:47:43.296Z,16.30
2018-06-25T04:48:17.575Z,16.30
2018-06-25T04:48:51.208Z,16.30
2018-06-25T04:49:25.374Z,16.30
2018-06-25T04:49:58.946Z,16.40
2018-06-25T04:50:32.555Z,16.40
2018-06-25T04:51:06.808Z,16.40
2018-06-25T04:51:40.352Z,16.40
2018-06-25T04:52:47.157Z,16.40
2018-06-25T04:53:20.691Z,16.50
2018-06-25T04:53:54.284Z,16.50
2018-06-25T04:54:28.032Z,16.50
2018-06-25T04:55:02.332Z,16.50
2018-06-25T04:55:35.963Z,16.50
2018-06-25T04:56:10.036Z,16.50
2018-06-25T04:56:43.632Z,16.50
2018-06-25T04:57:17.212Z,16.50
2018-06-25T04:57:51.425Z,16.50
2018-06-25T04:58:24.964Z,16.50
2018-06-25T04:58:58.605Z,16.50
2018-06-25T04:59:32.187Z,16.50
2018-06-25T05:00:06.070Z,16.50
2018-06-25T05:00:39.616Z,16.50
2018-06-25T05:01:13.281Z,16.50
2018-06-25T05:01:46.795Z,16.50
2018-06-25T05:02:20.355Z,16.50
2018-06-25T05:02:53.932Z,16.50
2018-06-25T05:03:27.979Z,16.50
2018-06-25T05:04:01.562Z,16.50
2018-06-25T05:04:35.819Z,16.50
2018-06-25T05:05:09.419Z,16.50
2018-06-25T05:05:43.724Z,16.50
2018-06-25T05:06:17.258Z,16.50
2018-06-25T05:06:50.853Z,16.50
2018-06-25T05:07:24.448Z,16.50
2018-06-25T05:07:58.031Z,16.50
2018-06-25T05:08:31.623Z,16.50
2018-06-25T05:09:08.355Z,16.50
2018-06-25T05:09:42.742Z,16.50
2018-06-25T05:10:16.275Z,16.50
2018-06-25T05:10:49.872Z,16.50
2018-06-25T05:11:23.820Z,16.50
2018-06-25T05:11:57.354Z,16.40
2018-06-25T05:12:31.723Z,16.40
2018-06-25T05:13:05.543Z,16.40
2018-06-25T05:13:39.126Z,16.40
2018-06-25T05:14:12.666Z,16.40
2018-06-25T05:15:19.891Z,16.40
2018-06-25T05:15:53.432Z,16.40
2018-06-25T05:17:00.895Z,16.40
2018-06-25T05:17:34.744Z,16.40
2018-06-25T05:18:08.304Z,16.40
2018-06-25T05:18:41.855Z,16.40
2018-06-25T05:19:15.750Z,16.40
2018-06-25T05:19:49.371Z,16.40
2018-06-25T05:20:22.971Z,16.50
2018-06-25T05:20:57.248Z,16.50
2018-06-25T05:22:04.540Z,16.50
2018-06-25T05:22:38.196Z,16.50
2018-06-25T05:23:11.852Z,16.50
2018-06-25T05:23:45.459Z,16.50
2018-06-25T05:24:19.005Z,16.50
2018-06-25T05:24:52.627Z,16.50
2018-06-25T05:25:26.200Z,16.50
2018-06-25T05:25:59.811Z,16.50
2018-06-25T05:26:33.423Z,16.50
2018-06-25T05:27:07.023Z,16.50
2018-06-25T05:27:41.222Z,16.50
2018-06-25T05:28:15.535Z,16.50
2018-06-25T05:28:49.167Z,16.50
2018-06-25T05:29:23.451Z,16.50
2018-06-25T05:29:57.039Z,16.50
2018-06-25T05:30:30.589Z,16.50
2018-06-25T05:31:04.164Z,16.50
2018-06-25T05:31:37.750Z,16.50
2018-06-25T05:32:12.576Z,16.40
2018-06-25T05:32:46.170Z,16.40
2018-06-25T05:33:19.801Z,16.50
2018-06-25T05:33:53.388Z,16.40
2018-06-25T05:34:27.114Z,16.40
2018-06-25T05:35:00.638Z,16.50
2018-06-25T05:35:34.384Z,16.40
2018-06-25T05:36:07.984Z,16.40
2018-06-25T05:36:41.516Z,16.40
2018-06-25T05:37:15.096Z,16.50
2018-06-25T05:37:48.664Z,16.40
2018-06-25T05:38:22.336Z,16.40
2018-06-25T05:38:55.859Z,16.40
2018-06-25T05:40:02.709Z,16.50
2018-06-25T05:40:36.352Z,16.50
2018-06-25T05:41:09.960Z,16.40
2018-06-25T05:41:43.646Z,16.40
2018-06-25T05:42:21.312Z,16.40
2018-06-25T05:42:54.920Z,16.40
2018-06-25T05:43:28.500Z,16.40
2018-06-25T05:44:03.436Z,16.40
2018-06-25T05:44:37.027Z,16.50
2018-06-25T05:45:10.653Z,16.50
2018-06-25T05:45:44.219Z,16.50
2018-06-25T05:46:17.843Z,16.50
2018-06-25T05:46:51.351Z,16.50
2018-06-25T05:47:25.548Z,16.60
2018-06-25T05:47:59.143Z,16.60
2018-06-25T05:48:32.745Z,16.60
2018-06-25T05:49:07.461Z,16.60
2018-06-25T05:49:41.987Z,16.50
2018-06-25T05:50:15.645Z,16.60
2018-06-25T05:50:49.400Z,16.60
2018-06-25T05:51:22.995Z,16.60
2018-06-25T05:51:56.565Z,16.60
2018-06-25T05:52:30.160Z,16.60
2018-06-25T05:53:04.127Z,16.60
2018-06-25T05:53:37.729Z,16.60
2018-06-25T05:54:12.104Z,16.60
2018-06-25T05:54:45.686Z,16.60
2018-06-25T05:55:20.207Z,16.60
2018-06-25T05:55:54.594Z,16.60
2018-06-25T05:56:28.184Z,16.60
2018-06-25T05:57:01.766Z,16.60
2018-06-25T05:57:35.588Z,16.70
2018-06-25T05:58:09.212Z,16.70
2018-06-25T05:58:42.787Z,16.70
2018-06-25T05:59:16.325Z,16.70
2018-06-25T05:59:49.904Z,16.70
2018-06-25T06:00:23.540Z,16.70
2018-06-25T06:00:57.104Z,16.60
2018-06-25T06:01:30.804Z,16.60
2018-06-25T06:02:04.382Z,16.60
2018-06-25T06:02:37.991Z,16.60
2018-06-25T06:03:11.651Z,16.60
2018-06-25T06:03:45.641Z,16.60
2018-06-25T06:04:19.151Z,16.60
2018-06-25T06:04:52.702Z,16.60
2018-06-25T06:05:26.358Z,16.60
2018-06-25T06:05:59.927Z,16.60
2018-06-25T06:06:33.517Z,16.70
2018-06-25T06:07:07.107Z,16.60
2018-06-25T06:07:40.707Z,16.60
2018-06-25T06:08:14.836Z,16.60
2018-06-25T06:08:48.427Z,16.60
2018-06-25T06:09:21.979Z,16.60
2018-06-25T06:09:55.654Z,16.60
2018-06-25T06:10:29.433Z,16.60
2018-06-25T06:11:03.000Z,16.60
2018-06-25T06:11:37.289Z,16.60
2018-06-25T06:12:10.853Z,16.60
2018-06-25T06:12:44.399Z,16.60
2018-06-25T06:13:17.896Z,16.60
2018-06-25T06:13:51.838Z,16.60
2018-06-25T06:14:26.040Z,16.60
2018-06-25T06:15:00.161Z,16.60
2018-06-25T06:15:35.380Z,16.60
2018-06-25T06:16:09.536Z,16.50
2018-06-25T06:16:43.614Z,16.60
2018-06-25T06:17:17.191Z,16.60
2018-06-25T06:17:50.801Z,16.60
2018-06-25T06:18:24.387Z,16.60
2018-06-25T06:18:57.945Z,16.60
2018-06-25T06:19:31.571Z,16.60
2018-06-25T06:20:05.575Z,16.60
2018-06-25T06:20:39.162Z,16.50
2018-06-25T06:21:13.004Z,16.50
2018-06-25T06:21:46.580Z,16.60
2018-06-25T06:22:20.166Z,16.60
2018-06-25T06:22:54.715Z,16.60
2018-06-25T06:23:28.987Z,16.60
2018-06-25T06:24:02.585Z,16.60
2018-06-25T06:24:36.736Z,16.60
2018-06-25T06:25:10.364Z,16.60
2018-06-25T06:25:44.488Z,16.60
2018-06-25T06:26:18.057Z,16.60
2018-06-25T06:26:51.643Z,16.60
2018-06-25T06:27:25.325Z,16.60
2018-06-25T06:27:58.935Z,16.60
2018-06-25T06:28:32.537Z,16.60
2018-06-25T06:29:06.132Z,16.60
2018-06-25T06:29:40.240Z,16.60
2018-06-25T06:30:14.571Z,16.60
2018-06-25T06:30:48.187Z,16.60
2018-06-25T06:31:21.862Z,16.60
2018-06-25T06:31:55.425Z,16.60
2018-06-25T06:32:29.360Z,16.60
2018-06-25T06:33:04.172Z,16.60
2018-06-25T06:33:37.781Z,16.60
2018-06-25T06:34:11.348Z,16.60
2018-06-25T06:34:45.686Z,16.60
2018-06-25T06:35:19.344Z,16.60
2018-06-25T06:35:52.915Z,16.60
2018-06-25T06:36:26.518Z,16.60
2018-06-25T06:37:00.858Z,16.60
2018-06-25T06:37:35.016Z,16.70
2018-06-25T06:38:08.597Z,16.70
2018-06-25T06:38:42.210Z,16.70
2018-06-25T06:39:16.562Z,16.70
2018-06-25T06:39:50.203Z,16.70
2018-06-25T06:40:23.796Z,16.70
2018-06-25T06:40:57.359Z,16.70
2018-06-25T06:41:31.708Z,16.70
2018-06-25T06:42:05.355Z,16.70
2018-06-25T06:42:38.949Z,16.70
2018-06-25T06:43:12.539Z,16.70
2018-06-25T06:43:46.079Z,16.70
2018-06-25T06:44:52.950Z,16.60
2018-06-25T06:45:28.393Z,16.60
2018-06-25T06:46:35.416Z,16.60
2018-06-25T06:47:09.026Z,16.60
2018-06-25T06:47:42.548Z,16.60
2018-06-25T06:48:16.252Z,16.60
2018-06-25T06:48:49.803Z,16.70
2018-06-25T06:49:26.918Z,16.70
2018-06-25T06:50:00.440Z,16.70
2018-06-25T06:50:34.111Z,16.70
2018-06-25T06:51:08.496Z,16.70
2018-06-25T06:51:42.024Z,16.70
2018-06-25T06:52:15.957Z,16.70
2018-06-25T06:52:50.181Z,16.70
2018-06-25T06:53:24.412Z,16.80
2018-06-25T06:53:57.976Z,16.80
2018-06-25T06:54:31.520Z,16.80
2018-06-25T06:55:39.804Z,16.90
2018-06-25T06:56:13.490Z,16.90
2018-06-25T06:56:47.098Z,16.90
2018-06-25T06:57:20.621Z,16.90
2018-06-25T06:57:55.005Z,16.90
2018-06-25T06:58:28.689Z,17.00
2018-06-25T06:59:02.823Z,17.00
2018-06-25T06:59:36.344Z,17.00
2018-06-25T07:00:09.935Z,17.00
2018-06-25T07:00:43.492Z,17.00
2018-06-25T07:01:17.271Z,17.00
2018-06-25T07:01:51.472Z,17.00
2018-06-25T07:02:25.110Z,17.00
2018-06-25T07:02:58.741Z,17.00
2018-06-25T07:03:32.349Z,17.00
2018-06-25T07:04:05.879Z,17.00
2018-06-25T07:04:39.426Z,17.00
2018-06-25T07:05:13.031Z,17.00
2018-06-25T07:05:46.600Z,17.00
2018-06-25T07:06:20.522Z,17.00
2018-06-25T07:06:54.505Z,17.00
2018-06-25T07:07:28.146Z,17.00
2018-06-25T07:08:01.675Z,17.00
2018-06-25T07:08:35.859Z,17.00
2018-06-25T07:09:11.518Z,17.10
2018-06-25T07:09:45.176Z,17.10
2018-06-25T07:10:18.784Z,17.10
2018-06-25T07:10:52.948Z,17.00
2018-06-25T07:11:26.560Z,17.10
2018-06-25T07:12:01.357Z,17.10
2018-06-25T07:12:34.911Z,17.10
2018-06-25T07:13:08.431Z,17.10
2018-06-25T07:13:42.378Z,17.10
2018-06-25T07:14:15.990Z,17.10
2018-06-25T07:14:49.566Z,17.10
2018-06-25T07:15:23.191Z,17.10
2018-06-25T07:15:56.736Z,17.10
2018-06-25T07:16:30.320Z,17.10
2018-06-25T07:17:03.904Z,17.10
2018-06-25T07:17:37.572Z,17.10
2018-06-25T07:18:11.195Z,17.10
2018-06-25T07:18:44.768Z,17.10
2018-06-25T07:19:18.293Z,17.10
2018-06-25T07:19:51.864Z,17.10
2018-06-25T07:20:25.537Z,17.10
2018-06-25T07:20:59.048Z,17.20
2018-06-25T07:21:32.740Z,17.20
2018-06-25T07:22:06.319Z,17.20
2018-06-25T07:22:39.943Z,17.20
2018-06-25T07:23:14.301Z,17.20
2018-06-25T07:23:47.903Z,17.20
2018-06-25T07:24:21.429Z,17.20
2018-06-25T07:24:54.944Z,17.30
2018-06-25T07:25:28.487Z,17.20
2018-06-25T07:26:03.408Z,17.30
2018-06-25T07:26:37.051Z,17.30
2018-06-25T07:27:11.078Z,17.30
2018-06-25T07:27:44.682Z,17.30
2018-06-25T07:28:18.383Z,17.30
2018-06-25T07:28:52.265Z,17.30
2018-06-25T07:29:26.013Z,17.30
2018-06-25T07:30:00.317Z,17.30
2018-06-25T07:30:34.862Z,17.40
2018-06-25T07:31:08.435Z,17.30
2018-06-25T07:31:42.037Z,17.40
2018-06-25T07:32:15.636Z,17.30
2018-06-25T07:32:49.815Z,17.30
2018-06-25T07:33:24.156Z,17.30
2018-06-25T07:33:57.729Z,17.30